sensor_id;sensor_type;location;lat;lon;timestamp;temperature;humidity
28546;DHT22;15749;49.606;8.738;2022-10-28T00:01:10;20.30;78.80
28546;DHT22;15749;49.606;8.738;2022-10-28T00:04:00;20.30;79.20
28546;DHT22;15749;49.606;8.738;2022-10-28T00:06:49;20.20;79.30
28546;DHT22;15749;49.606;8.738;2022-10-28T00:09:36;20.30;79.30
28546;DHT22;15749;49.606;8.738;2022-10-28T00:12:24;20.20;79.20
28546;DHT22;15749;49.606;8.738;2022-10-28T00:15:11;20.20;78.90
28546;DHT22;15749;49.606;8.738;2022-10-28T00:17:58;20.20;78.90
28546;DHT22;15749;49.606;8.738;2022-10-28T00:20:46;20.20;79.20
28546;DHT22;15749;49.606;8.738;2022-10-28T00:23:35;20.20;79.20
28546;DHT22;15749;49.606;8.738;2022-10-28T00:26:25;20.10;79.40
28546;DHT22;15749;49.606;8.738;2022-10-28T00:29:15;20.10;79.30
28546;DHT22;15749;49.606;8.738;2022-10-28T00:32:03;20.10;79.30
28546;DHT22;15749;49.606;8.738;2022-10-28T00:34:51;20.10;79.10
28546;DHT22;15749;49.606;8.738;2022-10-28T00:37:38;20.00;78.90
28546;DHT22;15749;49.606;8.738;2022-10-28T00:40:27;20.00;79.00
28546;DHT22;15749;49.606;8.738;2022-10-28T00:43:33;20.00;79.70
28546;DHT22;15749;49.606;8.738;2022-10-28T00:46:27;20.00;79.80
28546;DHT22;15749;49.606;8.738;2022-10-28T00:49:20;20.00;79.30
28546;DHT22;15749;49.606;8.738;2022-10-28T00:52:14;20.00;79.10
28546;DHT22;15749;49.606;8.738;2022-10-28T00:55:03;19.90;79.00
28546;DHT22;15749;49.606;8.738;2022-10-28T00:57:54;19.90;79.20
28546;DHT22;15749;49.606;8.738;2022-10-28T01:00:42;19.90;79.70
28546;DHT22;15749;49.606;8.738;2022-10-28T01:03:30;19.90;79.40
28546;DHT22;15749;49.606;8.738;2022-10-28T01:06:18;19.90;79.40
28546;DHT22;15749;49.606;8.738;2022-10-28T01:09:06;19.90;79.90
28546;DHT22;15749;49.606;8.738;2022-10-28T01:11:56;19.80;79.30
28546;DHT22;15749;49.606;8.738;2022-10-28T01:14:58;19.80;79.20
28546;DHT22;15749;49.606;8.738;2022-10-28T01:17:56;19.90;80.00
28546;DHT22;15749;49.606;8.738;2022-10-28T01:24:57;19.80;80.70
28546;DHT22;15749;49.606;8.738;2022-10-28T01:28:20;19.80;80.40
28546;DHT22;15749;49.606;8.738;2022-10-28T01:31:32;19.80;80.50
28546;DHT22;15749;49.606;8.738;2022-10-28T01:34:31;19.80;80.40
28546;DHT22;15749;49.606;8.738;2022-10-28T01:37:29;19.80;80.00
28546;DHT22;15749;49.606;8.738;2022-10-28T01:40:25;19.70;80.40
28546;DHT22;15749;49.606;8.738;2022-10-28T01:43:24;19.80;80.60
28546;DHT22;15749;49.606;8.738;2022-10-28T01:46:17;19.70;80.70
28546;DHT22;15749;49.606;8.738;2022-10-28T01:49:12;19.70;80.60
28546;DHT22;15749;49.606;8.738;2022-10-28T01:52:04;19.70;81.00
28546;DHT22;15749;49.606;8.738;2022-10-28T01:54:56;19.70;80.50
28546;DHT22;15749;49.606;8.738;2022-10-28T01:57:47;19.70;80.60
28546;DHT22;15749;49.606;8.738;2022-10-28T02:00:36;19.70;80.70
28546;DHT22;15749;49.606;8.738;2022-10-28T02:03:24;19.70;80.70
28546;DHT22;15749;49.606;8.738;2022-10-28T02:06:15;19.60;80.60
28546;DHT22;15749;49.606;8.738;2022-10-28T02:09:20;19.60;80.40
28546;DHT22;15749;49.606;8.738;2022-10-28T02:12:21;19.60;81.10
28546;DHT22;15749;49.606;8.738;2022-10-28T02:15:28;19.60;81.20
28546;DHT22;15749;49.606;8.738;2022-10-28T02:18:29;19.60;81.10
28546;DHT22;15749;49.606;8.738;2022-10-28T02:21:26;19.60;80.60
28546;DHT22;15749;49.606;8.738;2022-10-28T02:24:28;19.60;80.70
28546;DHT22;15749;49.606;8.738;2022-10-28T02:27:29;19.60;80.40
28546;DHT22;15749;49.606;8.738;2022-10-28T02:30:21;19.60;81.30
28546;DHT22;15749;49.606;8.738;2022-10-28T02:33:15;19.60;80.60
28546;DHT22;15749;49.606;8.738;2022-10-28T02:36:08;19.60;80.70
28546;DHT22;15749;49.606;8.738;2022-10-28T02:39:00;19.60;80.90
28546;DHT22;15749;49.606;8.738;2022-10-28T02:41:51;19.60;81.00
28546;DHT22;15749;49.606;8.738;2022-10-28T02:44:43;19.60;81.30
28546;DHT22;15749;49.606;8.738;2022-10-28T02:47:38;19.60;81.40
28546;DHT22;15749;49.606;8.738;2022-10-28T02:50:32;19.60;81.40
28546;DHT22;15749;49.606;8.738;2022-10-28T02:53:25;19.60;81.60
28546;DHT22;15749;49.606;8.738;2022-10-28T02:56:19;19.60;81.70
28546;DHT22;15749;49.606;8.738;2022-10-28T02:59:08;19.60;81.50
28546;DHT22;15749;49.606;8.738;2022-10-28T03:01:57;19.50;80.60
28546;DHT22;15749;49.606;8.738;2022-10-28T03:04:46;19.60;79.40
28546;DHT22;15749;49.606;8.738;2022-10-28T03:07:33;19.50;79.30
28546;DHT22;15749;49.606;8.738;2022-10-28T03:10:21;19.50;78.70
28546;DHT22;15749;49.606;8.738;2022-10-28T03:13:11;19.50;79.40
28546;DHT22;15749;49.606;8.738;2022-10-28T03:15:59;19.50;79.60
28546;DHT22;15749;49.606;8.738;2022-10-28T03:18:48;19.50;79.40
28546;DHT22;15749;49.606;8.738;2022-10-28T03:21:36;19.50;80.40
28546;DHT22;15749;49.606;8.738;2022-10-28T03:24:24;19.50;79.90
28546;DHT22;15749;49.606;8.738;2022-10-28T03:27:12;19.50;79.50
28546;DHT22;15749;49.606;8.738;2022-10-28T03:30:02;19.50;80.10
28546;DHT22;15749;49.606;8.738;2022-10-28T03:32:50;19.50;80.80
28546;DHT22;15749;49.606;8.738;2022-10-28T03:35:39;19.50;80.10
28546;DHT22;15749;49.606;8.738;2022-10-28T03:38:28;19.40;79.70
28546;DHT22;15749;49.606;8.738;2022-10-28T03:41:16;19.50;80.00
28546;DHT22;15749;49.606;8.738;2022-10-28T03:44:04;19.50;79.80
28546;DHT22;15749;49.606;8.738;2022-10-28T03:46:54;19.50;80.10
28546;DHT22;15749;49.606;8.738;2022-10-28T03:49:42;19.50;80.20
28546;DHT22;15749;49.606;8.738;2022-10-28T03:52:30;19.50;79.80
28546;DHT22;15749;49.606;8.738;2022-10-28T03:55:18;19.50;80.20
28546;DHT22;15749;49.606;8.738;2022-10-28T03:58:08;19.50;80.00
28546;DHT22;15749;49.606;8.738;2022-10-28T04:00:56;19.50;80.00
28546;DHT22;15749;49.606;8.738;2022-10-28T04:03:46;19.50;80.30
28546;DHT22;15749;49.606;8.738;2022-10-28T04:06:34;19.50;80.50
28546;DHT22;15749;49.606;8.738;2022-10-28T04:09:22;19.50;80.60
28546;DHT22;15749;49.606;8.738;2022-10-28T04:12:10;19.50;80.70
28546;DHT22;15749;49.606;8.738;2022-10-28T04:14:58;19.50;80.30
28546;DHT22;15749;49.606;8.738;2022-10-28T04:17:46;19.50;80.30
28546;DHT22;15749;49.606;8.738;2022-10-28T04:20:35;19.50;80.20
28546;DHT22;15749;49.606;8.738;2022-10-28T04:23:23;19.50;81.00
28546;DHT22;15749;49.606;8.738;2022-10-28T04:26:11;19.50;80.50
28546;DHT22;15749;49.606;8.738;2022-10-28T04:29:00;19.50;81.30
28546;DHT22;15749;49.606;8.738;2022-10-28T04:31:48;19.50;80.70
28546;DHT22;15749;49.606;8.738;2022-10-28T04:34:38;19.50;81.00
28546;DHT22;15749;49.606;8.738;2022-10-28T04:37:27;19.50;81.30
28546;DHT22;15749;49.606;8.738;2022-10-28T04:40:16;19.50;81.10
28546;DHT22;15749;49.606;8.738;2022-10-28T04:43:03;19.50;81.90
28546;DHT22;15749;49.606;8.738;2022-10-28T04:45:55;19.50;81.30
28546;DHT22;15749;49.606;8.738;2022-10-28T04:48:42;19.50;81.10
28546;DHT22;15749;49.606;8.738;2022-10-28T04:51:30;19.50;80.90
28546;DHT22;15749;49.606;8.738;2022-10-28T04:54:19;19.50;81.30
28546;DHT22;15749;49.606;8.738;2022-10-28T04:57:07;19.50;81.40
28546;DHT22;15749;49.606;8.738;2022-10-28T04:59:55;19.50;81.10
28546;DHT22;15749;49.606;8.738;2022-10-28T05:02:43;19.60;81.20
28546;DHT22;15749;49.606;8.738;2022-10-28T05:05:31;19.60;81.40
28546;DHT22;15749;49.606;8.738;2022-10-28T05:08:19;19.50;81.60
28546;DHT22;15749;49.606;8.738;2022-10-28T05:11:08;19.60;81.30
28546;DHT22;15749;49.606;8.738;2022-10-28T05:13:56;19.50;81.80
28546;DHT22;15749;49.606;8.738;2022-10-28T05:16:44;19.50;82.00
28546;DHT22;15749;49.606;8.738;2022-10-28T05:19:33;19.60;81.70
28546;DHT22;15749;49.606;8.738;2022-10-28T05:22:21;19.60;81.80
28546;DHT22;15749;49.606;8.738;2022-10-28T05:25:09;19.50;81.50
28546;DHT22;15749;49.606;8.738;2022-10-28T05:27:58;19.50;81.20
28546;DHT22;15749;49.606;8.738;2022-10-28T05:30:47;19.60;82.60
28546;DHT22;15749;49.606;8.738;2022-10-28T05:33:37;19.60;82.70
28546;DHT22;15749;49.606;8.738;2022-10-28T05:36:26;19.50;82.40
28546;DHT22;15749;49.606;8.738;2022-10-28T05:39:14;19.60;81.60
28546;DHT22;15749;49.606;8.738;2022-10-28T05:42:03;19.50;81.40
28546;DHT22;15749;49.606;8.738;2022-10-28T05:44:52;19.60;82.60
28546;DHT22;15749;49.606;8.738;2022-10-28T05:47:42;19.50;81.80
28546;DHT22;15749;49.606;8.738;2022-10-28T05:50:30;19.60;82.10
28546;DHT22;15749;49.606;8.738;2022-10-28T05:53:18;19.50;81.50
28546;DHT22;15749;49.606;8.738;2022-10-28T05:56:07;19.50;81.50
28546;DHT22;15749;49.606;8.738;2022-10-28T05:58:55;19.60;83.00
28546;DHT22;15749;49.606;8.738;2022-10-28T06:01:44;19.60;82.50
28546;DHT22;15749;49.606;8.738;2022-10-28T06:04:13;19.50;81.70
28546;DHT22;15749;49.606;8.738;2022-10-28T06:06:43;19.60;81.60
28546;DHT22;15749;49.606;8.738;2022-10-28T06:09:13;19.50;81.80
28546;DHT22;15749;49.606;8.738;2022-10-28T06:11:42;19.50;81.20
28546;DHT22;15749;49.606;8.738;2022-10-28T06:14:12;19.50;81.30
28546;DHT22;15749;49.606;8.738;2022-10-28T06:16:41;19.50;81.10
28546;DHT22;15749;49.606;8.738;2022-10-28T06:19:13;19.50;81.10
28546;DHT22;15749;49.606;8.738;2022-10-28T06:21:43;19.50;81.90
28546;DHT22;15749;49.606;8.738;2022-10-28T06:24:13;19.50;83.00
28546;DHT22;15749;49.606;8.738;2022-10-28T06:26:42;19.50;81.30
28546;DHT22;15749;49.606;8.738;2022-10-28T06:29:12;19.50;81.60
28546;DHT22;15749;49.606;8.738;2022-10-28T06:31:42;19.50;82.10
28546;DHT22;15749;49.606;8.738;2022-10-28T06:34:13;19.50;83.00
28546;DHT22;15749;49.606;8.738;2022-10-28T06:36:42;19.50;82.10
28546;DHT22;15749;49.606;8.738;2022-10-28T06:39:12;19.50;81.90
28546;DHT22;15749;49.606;8.738;2022-10-28T06:41:42;19.50;81.90
28546;DHT22;15749;49.606;8.738;2022-10-28T06:44:11;19.60;82.30
28546;DHT22;15749;49.606;8.738;2022-10-28T06:46:41;19.60;82.10
28546;DHT22;15749;49.606;8.738;2022-10-28T06:49:10;19.60;82.40
28546;DHT22;15749;49.606;8.738;2022-10-28T06:51:41;19.50;82.90
28546;DHT22;15749;49.606;8.738;2022-10-28T06:54:11;19.50;82.50
28546;DHT22;15749;49.606;8.738;2022-10-28T06:56:40;19.60;82.90
28546;DHT22;15749;49.606;8.738;2022-10-28T06:59:12;19.60;82.70
28546;DHT22;15749;49.606;8.738;2022-10-28T07:01:41;19.60;82.30
28546;DHT22;15749;49.606;8.738;2022-10-28T07:04:13;19.60;82.90
28546;DHT22;15749;49.606;8.738;2022-10-28T07:06:42;19.60;84.10
28546;DHT22;15749;49.606;8.738;2022-10-28T07:09:16;19.60;82.70
28546;DHT22;15749;49.606;8.738;2022-10-28T07:11:47;19.60;82.50
28546;DHT22;15749;49.606;8.738;2022-10-28T07:14:22;19.70;84.20
28546;DHT22;15749;49.606;8.738;2022-10-28T07:16:51;19.60;83.50
28546;DHT22;15749;49.606;8.738;2022-10-28T07:19:22;19.60;83.10
28546;DHT22;15749;49.606;8.738;2022-10-28T07:21:52;19.70;83.90
28546;DHT22;15749;49.606;8.738;2022-10-28T07:24:21;19.70;83.50
28546;DHT22;15749;49.606;8.738;2022-10-28T07:26:51;19.70;84.00
28546;DHT22;15749;49.606;8.738;2022-10-28T07:29:24;19.70;84.10
28546;DHT22;15749;49.606;8.738;2022-10-28T07:31:54;19.70;83.60
28546;DHT22;15749;49.606;8.738;2022-10-28T07:34:25;19.70;84.60
28546;DHT22;15749;49.606;8.738;2022-10-28T07:36:55;19.70;83.90
28546;DHT22;15749;49.606;8.738;2022-10-28T07:39:25;19.70;84.70
28546;DHT22;15749;49.606;8.738;2022-10-28T07:41:55;19.70;84.10
28546;DHT22;15749;49.606;8.738;2022-10-28T07:44:24;19.80;84.10
28546;DHT22;15749;49.606;8.738;2022-10-28T07:46:54;19.80;84.20
28546;DHT22;15749;49.606;8.738;2022-10-28T07:49:26;19.80;84.20
28546;DHT22;15749;49.606;8.738;2022-10-28T07:51:59;19.80;84.50
28546;DHT22;15749;49.606;8.738;2022-10-28T07:54:28;19.80;85.70
28546;DHT22;15749;49.606;8.738;2022-10-28T07:56:58;19.80;84.50
28546;DHT22;15749;49.606;8.738;2022-10-28T07:59:28;19.90;84.60
28546;DHT22;15749;49.606;8.738;2022-10-28T08:01:57;19.80;84.50
28546;DHT22;15749;49.606;8.738;2022-10-28T08:04:31;19.90;84.90
28546;DHT22;15749;49.606;8.738;2022-10-28T08:07:01;19.90;84.90
28546;DHT22;15749;49.606;8.738;2022-10-28T08:09:30;19.90;84.40
28546;DHT22;15749;49.606;8.738;2022-10-28T08:12:00;19.90;85.00
28546;DHT22;15749;49.606;8.738;2022-10-28T08:14:29;19.90;84.50
28546;DHT22;15749;49.606;8.738;2022-10-28T08:16:59;19.90;84.60
28546;DHT22;15749;49.606;8.738;2022-10-28T08:19:30;20.00;85.60
28546;DHT22;15749;49.606;8.738;2022-10-28T08:22:00;20.00;85.80
28546;DHT22;15749;49.606;8.738;2022-10-28T08:24:30;20.00;84.60
28546;DHT22;15749;49.606;8.738;2022-10-28T08:27:00;20.10;84.70
28546;DHT22;15749;49.606;8.738;2022-10-28T08:29:32;20.00;85.10
28546;DHT22;15749;49.606;8.738;2022-10-28T08:32:09;20.10;85.90
28546;DHT22;15749;49.606;8.738;2022-10-28T08:34:45;20.10;85.20
28546;DHT22;15749;49.606;8.738;2022-10-28T08:37:17;20.20;86.40
28546;DHT22;15749;49.606;8.738;2022-10-28T08:39:50;20.10;84.90
28546;DHT22;15749;49.606;8.738;2022-10-28T08:42:27;20.20;85.00
28546;DHT22;15749;49.606;8.738;2022-10-28T08:45:24;20.20;86.50
28546;DHT22;15749;49.606;8.738;2022-10-28T08:48:09;20.20;86.20
28546;DHT22;15749;49.606;8.738;2022-10-28T08:50:51;20.30;87.70
28546;DHT22;15749;49.606;8.738;2022-10-28T08:53:27;20.30;86.80
28546;DHT22;15749;49.606;8.738;2022-10-28T08:56:08;20.40;87.20
28546;DHT22;15749;49.606;8.738;2022-10-28T09:01:46;20.50;88.20
28546;DHT22;15749;49.606;8.738;2022-10-28T09:04:25;20.60;88.20
28546;DHT22;15749;49.606;8.738;2022-10-28T09:06:58;20.70;89.30
28546;DHT22;15749;49.606;8.738;2022-10-28T09:09:29;20.80;89.60
28546;DHT22;15749;49.606;8.738;2022-10-28T09:12:15;20.90;89.80
28546;DHT22;15749;49.606;8.738;2022-10-28T09:15:11;21.00;90.00
28546;DHT22;15749;49.606;8.738;2022-10-28T09:17:53;21.10;89.50
28546;DHT22;15749;49.606;8.738;2022-10-28T09:20:30;21.20;89.80
28546;DHT22;15749;49.606;8.738;2022-10-28T09:23:09;21.40;89.80
28546;DHT22;15749;49.606;8.738;2022-10-28T09:25:56;21.50;89.60
28546;DHT22;15749;49.606;8.738;2022-10-28T09:28:42;21.60;89.20
28546;DHT22;15749;49.606;8.738;2022-10-28T09:31:25;21.70;89.00
28546;DHT22;15749;49.606;8.738;2022-10-28T09:34:08;21.80;88.70
28546;DHT22;15749;49.606;8.738;2022-10-28T09:36:47;21.80;88.20
28546;DHT22;15749;49.606;8.738;2022-10-28T09:39:25;21.90;88.10
28546;DHT22;15749;49.606;8.738;2022-10-28T09:42:02;22.00;87.90
28546;DHT22;15749;49.606;8.738;2022-10-28T09:44:38;22.00;87.90
28546;DHT22;15749;49.606;8.738;2022-10-28T09:47:14;22.10;88.00
28546;DHT22;15749;49.606;8.738;2022-10-28T09:49:47;22.10;87.90
28546;DHT22;15749;49.606;8.738;2022-10-28T09:52:21;22.10;87.80
28546;DHT22;15749;49.606;8.738;2022-10-28T09:54:53;22.20;87.80
28546;DHT22;15749;49.606;8.738;2022-10-28T09:57:30;22.20;87.80
28546;DHT22;15749;49.606;8.738;2022-10-28T10:00:00;22.20;87.90
28546;DHT22;15749;49.606;8.738;2022-10-28T10:02:36;22.30;88.60
28546;DHT22;15749;49.606;8.738;2022-10-28T10:05:11;22.40;89.30
28546;DHT22;15749;49.606;8.738;2022-10-28T10:07:47;22.50;89.90
28546;DHT22;15749;49.606;8.738;2022-10-28T10:10:22;22.60;90.00
28546;DHT22;15749;49.606;8.738;2022-10-28T10:12:56;22.80;90.00
28546;DHT22;15749;49.606;8.738;2022-10-28T10:15:30;22.90;89.80
28546;DHT22;15749;49.606;8.738;2022-10-28T10:18:02;23.10;90.00
28546;DHT22;15749;49.606;8.738;2022-10-28T10:20:46;23.20;89.80
28546;DHT22;15749;49.606;8.738;2022-10-28T10:23:26;23.40;88.90
28546;DHT22;15749;49.606;8.738;2022-10-28T10:26:01;23.60;88.90
28546;DHT22;15749;49.606;8.738;2022-10-28T10:28:39;23.70;88.80
28546;DHT22;15749;49.606;8.738;2022-10-28T10:31:17;23.90;88.70
28546;DHT22;15749;49.606;8.738;2022-10-28T10:33:49;24.10;88.60
28546;DHT22;15749;49.606;8.738;2022-10-28T10:36:21;24.20;88.70
28546;DHT22;15749;49.606;8.738;2022-10-28T10:38:56;24.30;88.70
28546;DHT22;15749;49.606;8.738;2022-10-28T10:41:34;24.50;88.10
28546;DHT22;15749;49.606;8.738;2022-10-28T10:44:23;24.70;86.70
28546;DHT22;15749;49.606;8.738;2022-10-28T10:47:19;24.90;87.30
28546;DHT22;15749;49.606;8.738;2022-10-28T10:49:50;25.10;87.00
28546;DHT22;15749;49.606;8.738;2022-10-28T10:52:22;25.20;88.50
28546;DHT22;15749;49.606;8.738;2022-10-28T10:54:58;25.40;88.20
28546;DHT22;15749;49.606;8.738;2022-10-28T10:57:31;25.60;86.10
28546;DHT22;15749;49.606;8.738;2022-10-28T11:00:01;25.80;87.60
28546;DHT22;15749;49.606;8.738;2022-10-28T11:02:33;26.00;87.70
28546;DHT22;15749;49.606;8.738;2022-10-28T11:05:08;26.20;85.90
28546;DHT22;15749;49.606;8.738;2022-10-28T11:07:43;26.40;86.40
28546;DHT22;15749;49.606;8.738;2022-10-28T11:10:21;26.60;86.20
28546;DHT22;15749;49.606;8.738;2022-10-28T11:12:54;26.90;84.10
28546;DHT22;15749;49.606;8.738;2022-10-28T11:15:26;27.00;84.10
28546;DHT22;15749;49.606;8.738;2022-10-28T11:17:58;27.20;84.30
28546;DHT22;15749;49.606;8.738;2022-10-28T11:20:38;27.50;83.10
28546;DHT22;15749;49.606;8.738;2022-10-28T11:23:26;27.70;81.90
28546;DHT22;15749;49.606;8.738;2022-10-28T11:26:09;27.90;80.40
28546;DHT22;15749;49.606;8.738;2022-10-28T11:29:00;28.10;80.20
28546;DHT22;15749;49.606;8.738;2022-10-28T11:32:01;28.30;79.20
28546;DHT22;15749;49.606;8.738;2022-10-28T11:34:58;28.50;79.60
28546;DHT22;15749;49.606;8.738;2022-10-28T11:37:46;28.70;79.40
28546;DHT22;15749;49.606;8.738;2022-10-28T11:40:26;28.90;78.30
28546;DHT22;15749;49.606;8.738;2022-10-28T11:43:11;29.10;77.20
28546;DHT22;15749;49.606;8.738;2022-10-28T11:45:54;29.30;78.00
28546;DHT22;15749;49.606;8.738;2022-10-28T11:48:38;29.50;77.00
28546;DHT22;15749;49.606;8.738;2022-10-28T11:51:26;29.70;76.50
28546;DHT22;15749;49.606;8.738;2022-10-28T11:54:14;29.80;74.90
28546;DHT22;15749;49.606;8.738;2022-10-28T11:56:58;30.00;74.30
28546;DHT22;15749;49.606;8.738;2022-10-28T11:59:54;30.20;74.10
28546;DHT22;15749;49.606;8.738;2022-10-28T12:02:54;30.40;74.10
28546;DHT22;15749;49.606;8.738;2022-10-28T12:05:32;30.50;72.70
28546;DHT22;15749;49.606;8.738;2022-10-28T12:08:14;30.60;72.10
28546;DHT22;15749;49.606;8.738;2022-10-28T12:10:59;30.80;72.70
28546;DHT22;15749;49.606;8.738;2022-10-28T12:13:39;30.90;69.80
28546;DHT22;15749;49.606;8.738;2022-10-28T12:16:18;31.00;70.10
28546;DHT22;15749;49.606;8.738;2022-10-28T12:18:53;31.10;69.10
28546;DHT22;15749;49.606;8.738;2022-10-28T12:21:28;31.20;69.00
28546;DHT22;15749;49.606;8.738;2022-10-28T12:24:09;31.20;68.30
28546;DHT22;15749;49.606;8.738;2022-10-28T12:26:43;31.20;68.90
28546;DHT22;15749;49.606;8.738;2022-10-28T12:29:18;31.10;67.20
28546;DHT22;15749;49.606;8.738;2022-10-28T12:31:53;31.00;67.20
28546;DHT22;15749;49.606;8.738;2022-10-28T12:34:30;30.90;66.20
28546;DHT22;15749;49.606;8.738;2022-10-28T12:37:09;30.80;66.50
28546;DHT22;15749;49.606;8.738;2022-10-28T12:39:44;30.70;66.50
28546;DHT22;15749;49.606;8.738;2022-10-28T12:42:21;30.50;65.10
28546;DHT22;15749;49.606;8.738;2022-10-28T12:44:55;30.40;65.90
28546;DHT22;15749;49.606;8.738;2022-10-28T12:47:30;30.30;65.20
28546;DHT22;15749;49.606;8.738;2022-10-28T12:50:15;30.10;64.80
28546;DHT22;15749;49.606;8.738;2022-10-28T12:52:55;30.00;63.80
28546;DHT22;15749;49.606;8.738;2022-10-28T12:55:45;29.80;63.80
28546;DHT22;15749;49.606;8.738;2022-10-28T12:58:21;29.60;64.00
28546;DHT22;15749;49.606;8.738;2022-10-28T13:00:55;29.50;64.10
28546;DHT22;15749;49.606;8.738;2022-10-28T13:03:27;29.30;64.10
28546;DHT22;15749;49.606;8.738;2022-10-28T13:06:17;29.20;64.30
28546;DHT22;15749;49.606;8.738;2022-10-28T13:09:35;29.10;64.80
28546;DHT22;15749;49.606;8.738;2022-10-28T13:12:27;28.90;65.20
28546;DHT22;15749;49.606;8.738;2022-10-28T13:15:27;28.80;65.30
28546;DHT22;15749;49.606;8.738;2022-10-28T13:24:49;28.40;65.20
28546;DHT22;15749;49.606;8.738;2022-10-28T13:27:24;28.30;64.30
28546;DHT22;15749;49.606;8.738;2022-10-28T13:29:55;28.20;65.20
28546;DHT22;15749;49.606;8.738;2022-10-28T13:32:30;28.20;65.10
28546;DHT22;15749;49.606;8.738;2022-10-28T13:35:14;28.10;64.60
28546;DHT22;15749;49.606;8.738;2022-10-28T13:37:51;28.00;64.40
28546;DHT22;15749;49.606;8.738;2022-10-28T13:50:32;27.70;64.80
28546;DHT22;15749;49.606;8.738;2022-10-28T13:56:45;27.60;65.90
28546;DHT22;15749;49.606;8.738;2022-10-28T13:59:24;27.50;67.00
28546;DHT22;15749;49.606;8.738;2022-10-28T14:01:59;27.50;66.30
28546;DHT22;15749;49.606;8.738;2022-10-28T14:04:58;27.50;66.70
28546;DHT22;15749;49.606;8.738;2022-10-28T14:07:30;27.40;65.70
28546;DHT22;15749;49.606;8.738;2022-10-28T14:10:18;27.30;65.30
28546;DHT22;15749;49.606;8.738;2022-10-28T14:12:53;27.30;65.50
28546;DHT22;15749;49.606;8.738;2022-10-28T14:15:27;27.20;65.30
28546;DHT22;15749;49.606;8.738;2022-10-28T14:17:59;27.20;65.50
28546;DHT22;15749;49.606;8.738;2022-10-28T14:20:55;27.20;65.60
28546;DHT22;15749;49.606;8.738;2022-10-28T14:27:29;27.10;66.00
28546;DHT22;15749;49.606;8.738;2022-10-28T14:30:17;27.00;66.60
28546;DHT22;15749;49.606;8.738;2022-10-28T14:36:13;26.90;66.80
28546;DHT22;15749;49.606;8.738;2022-10-28T14:39:19;26.90;66.40
28546;DHT22;15749;49.606;8.738;2022-10-28T14:42:19;26.80;65.90
28546;DHT22;15749;49.606;8.738;2022-10-28T14:45:08;26.80;66.50
28546;DHT22;15749;49.606;8.738;2022-10-28T14:48:02;26.80;66.00
28546;DHT22;15749;49.606;8.738;2022-10-28T14:50:43;26.70;66.70
28546;DHT22;15749;49.606;8.738;2022-10-28T14:53:19;26.70;66.60
28546;DHT22;15749;49.606;8.738;2022-10-28T14:55:57;26.60;66.80
28546;DHT22;15749;49.606;8.738;2022-10-28T14:58:30;26.60;66.60
28546;DHT22;15749;49.606;8.738;2022-10-28T15:01:20;26.60;67.00
28546;DHT22;15749;49.606;8.738;2022-10-28T15:03:54;26.60;67.20
28546;DHT22;15749;49.606;8.738;2022-10-28T15:06:34;26.50;66.60
28546;DHT22;15749;49.606;8.738;2022-10-28T15:09:15;26.50;67.60
28546;DHT22;15749;49.606;8.738;2022-10-28T15:11:48;26.50;68.00
28546;DHT22;15749;49.606;8.738;2022-10-28T15:14:25;26.50;67.40
28546;DHT22;15749;49.606;8.738;2022-10-28T15:17:05;26.50;67.80
28546;DHT22;15749;49.606;8.738;2022-10-28T15:19:40;26.40;68.00
28546;DHT22;15749;49.606;8.738;2022-10-28T15:22:17;26.40;68.00
28546;DHT22;15749;49.606;8.738;2022-10-28T15:24:56;26.40;67.90
28546;DHT22;15749;49.606;8.738;2022-10-28T15:27:29;26.40;68.60
28546;DHT22;15749;49.606;8.738;2022-10-28T15:30:00;26.40;68.80
28546;DHT22;15749;49.606;8.738;2022-10-28T15:32:34;26.40;68.00
28546;DHT22;15749;49.606;8.738;2022-10-28T15:35:37;26.30;68.20
28546;DHT22;15749;49.606;8.738;2022-10-28T15:38:29;26.30;67.90
28546;DHT22;15749;49.606;8.738;2022-10-28T15:41:01;26.30;68.60
28546;DHT22;15749;49.606;8.738;2022-10-28T15:43:30;26.20;66.50
28546;DHT22;15749;49.606;8.738;2022-10-28T15:46:08;26.20;67.40
28546;DHT22;15749;49.606;8.738;2022-10-28T15:48:40;26.10;66.90
28546;DHT22;15749;49.606;8.738;2022-10-28T15:51:11;26.10;67.60
28546;DHT22;15749;49.606;8.738;2022-10-28T15:53:41;26.10;67.70
28546;DHT22;15749;49.606;8.738;2022-10-28T15:56:19;26.00;68.00
28546;DHT22;15749;49.606;8.738;2022-10-28T15:59:12;26.00;67.60
28546;DHT22;15749;49.606;8.738;2022-10-28T16:01:45;26.00;67.80
28546;DHT22;15749;49.606;8.738;2022-10-28T16:04:42;25.90;67.70
28546;DHT22;15749;49.606;8.738;2022-10-28T16:07:11;25.90;68.00
28546;DHT22;15749;49.606;8.738;2022-10-28T16:09:43;25.80;67.50
28546;DHT22;15749;49.606;8.738;2022-10-28T16:12:16;25.80;68.10
28546;DHT22;15749;49.606;8.738;2022-10-28T16:14:47;25.80;68.10
28546;DHT22;15749;49.606;8.738;2022-10-28T16:17:23;25.70;68.30
28546;DHT22;15749;49.606;8.738;2022-10-28T16:19:57;25.70;68.40
28546;DHT22;15749;49.606;8.738;2022-10-28T16:22:28;25.70;69.00
28546;DHT22;15749;49.606;8.738;2022-10-28T16:24:58;25.60;68.70
28546;DHT22;15749;49.606;8.738;2022-10-28T16:27:30;25.60;68.80
28546;DHT22;15749;49.606;8.738;2022-10-28T16:29:59;25.60;68.70
28546;DHT22;15749;49.606;8.738;2022-10-28T16:32:33;25.60;68.70
28546;DHT22;15749;49.606;8.738;2022-10-28T16:35:13;25.50;68.50
28546;DHT22;15749;49.606;8.738;2022-10-28T16:37:43;25.50;69.20
28546;DHT22;15749;49.606;8.738;2022-10-28T16:40:18;25.50;68.90
28546;DHT22;15749;49.606;8.738;2022-10-28T16:43:14;25.40;68.50
28546;DHT22;15749;49.606;8.738;2022-10-28T16:45:44;25.40;68.60
28546;DHT22;15749;49.606;8.738;2022-10-28T16:48:14;25.40;68.40
28546;DHT22;15749;49.606;8.738;2022-10-28T16:50:48;25.30;68.50
28546;DHT22;15749;49.606;8.738;2022-10-28T16:53:18;25.30;68.90
28546;DHT22;15749;49.606;8.738;2022-10-28T16:55:48;25.30;68.40
28546;DHT22;15749;49.606;8.738;2022-10-28T16:58:17;25.20;68.90
28546;DHT22;15749;49.606;8.738;2022-10-28T17:00:52;25.20;68.70
28546;DHT22;15749;49.606;8.738;2022-10-28T17:03:22;25.20;69.20
28546;DHT22;15749;49.606;8.738;2022-10-28T17:05:52;25.10;68.80
28546;DHT22;15749;49.606;8.738;2022-10-28T17:08:21;25.10;68.80
28546;DHT22;15749;49.606;8.738;2022-10-28T17:11:13;25.00;68.80
28546;DHT22;15749;49.606;8.738;2022-10-28T17:13:42;25.00;68.90
28546;DHT22;15749;49.606;8.738;2022-10-28T17:16:11;25.00;68.40
28546;DHT22;15749;49.606;8.738;2022-10-28T17:18:40;24.90;69.10
28546;DHT22;15749;49.606;8.738;2022-10-28T17:21:11;24.90;68.80
28546;DHT22;15749;49.606;8.738;2022-10-28T17:23:40;24.80;69.40
28546;DHT22;15749;49.606;8.738;2022-10-28T17:26:09;24.80;68.90
28546;DHT22;15749;49.606;8.738;2022-10-28T17:28:38;24.70;69.20
28546;DHT22;15749;49.606;8.738;2022-10-28T17:31:08;24.70;69.90
28546;DHT22;15749;49.606;8.738;2022-10-28T17:33:37;24.70;69.20